Wanette, Oklahoma
Current Conditions -  °F | °C
As of 10:35 AM on Wednesday 26 Nov 2014 (Local Time) from KPVJ Reporting Station
Clear Clear  
Wind Chill: 51°   Ceiling: Unl
Heat Index: 51°   Visibility: 10mi
Dew Point: 33°   Wind: 16mph
Humidity: 50%   Direction: 350°N
Pressure: 30.18"   Gusts: NA
Location:  34.96°N, 97.03°W
Report Text: KPVJ 261635Z AUTO 35014KT 10SM CLR 11/01 A3018 RMK AO2 T01070005
Loading
Personal Weather Stations






























Interactive Weather Map New forecast layout! Learn more

10-Day Weather Forecast

Advertisements
Track Severe Weather on mobile